C2016 KVQQ-KLAL
Flight info
| Callsign | C2016 |
|---|---|
| Flight time | N/A |
| Altitude | 17500 |
| Route | VFR |
| Aircraft | C30J/M-V/N |
Departure
| Time | N/A |
|---|---|
| Airport | Cecil Airport (KVQQ) |
Arrival
| Time | 2026-04-26 21:09 |
|---|---|
| Airport | Lakeland Linder International Airport (KLAL) |
| Time | Latitude | Longitude | Altitude | Speed | Heading |
|---|---|---|---|---|---|
| 2026-04-26 18:57 | 29.45490 | -81.70160 | 17499 ft | 357 kts | 172° |
| 2026-04-26 18:57 | 29.43077 | -81.69601 | 17499 ft | 358 kts | 172° |
| 2026-04-26 18:58 | 29.40637 | -81.69036 | 17501 ft | 358 kts | 172° |
| 2026-04-26 18:58 | 29.38196 | -81.68471 | 17502 ft | 358 kts | 172° |
| 2026-04-26 18:58 | 29.35754 | -81.67906 | 17501 ft | 358 kts | 172° |
| 2026-04-26 18:58 | 29.33311 | -81.67342 | 17501 ft | 358 kts | 172° |
| 2026-04-26 18:59 | 29.30863 | -81.66776 | 17498 ft | 358 kts | 172° |
| 2026-04-26 18:59 | 29.28428 | -81.66213 | 17500 ft | 358 kts | 172° |
| 2026-04-26 18:59 | 29.25978 | -81.65648 | 17496 ft | 358 kts | 172° |
| 2026-04-26 18:59 | 29.23536 | -81.65084 | 17502 ft | 358 kts | 172° |
| 2026-04-26 19:00 | 29.21090 | -81.64520 | 17497 ft | 358 kts | 172° |
| 2026-04-26 19:00 | 29.18638 | -81.63954 | 17500 ft | 358 kts | 172° |
| 2026-04-26 19:00 | 29.16233 | -81.63400 | 17501 ft | 358 kts | 172° |
| 2026-04-26 19:00 | 29.13781 | -81.62836 | 17501 ft | 358 kts | 172° |
| 2026-04-26 19:01 | 29.11339 | -81.62274 | 17502 ft | 358 kts | 172° |
| 2026-04-26 19:01 | 29.08894 | -81.61711 | 17499 ft | 358 kts | 172° |
| 2026-04-26 19:01 | 29.06443 | -81.61147 | 17497 ft | 358 kts | 172° |
| 2026-04-26 19:01 | 29.04003 | -81.60586 | 17501 ft | 358 kts | 172° |
| 2026-04-26 19:02 | 29.01557 | -81.60024 | 17500 ft | 359 kts | 172° |
| 2026-04-26 19:02 | 28.99106 | -81.59461 | 17496 ft | 359 kts | 172° |
| 2026-04-26 19:02 | 28.96657 | -81.58899 | 17489 ft | 359 kts | 172° |
| 2026-04-26 19:02 | 28.95040 | -81.58528 | 17495 ft | 359 kts | 172° |
| 2026-04-26 19:03 | 28.91793 | -81.57784 | 17496 ft | 359 kts | 172° |
| 2026-04-26 19:03 | 28.89313 | -81.57215 | 17500 ft | 358 kts | 172° |
| 2026-04-26 19:03 | 28.86935 | -81.56669 | 17490 ft | 352 kts | 172° |
| 2026-04-26 19:03 | 28.84536 | -81.56120 | 17497 ft | 348 kts | 172° |
| 2026-04-26 19:04 | 28.82155 | -81.55576 | 17496 ft | 349 kts | 172° |
| 2026-04-26 19:04 | 28.79770 | -81.55031 | 17497 ft | 351 kts | 172° |
| 2026-04-26 19:04 | 28.77366 | -81.54481 | 17493 ft | 352 kts | 172° |
| 2026-04-26 19:04 | 28.74963 | -81.53932 | 17500 ft | 352 kts | 172° |
| 2026-04-26 19:05 | 28.70197 | -81.52843 | 17505 ft | 349 kts | 172° |
| 2026-04-26 19:05 | 28.67844 | -81.52306 | 17502 ft | 350 kts | 172° |
| 2026-04-26 19:05 | 28.65449 | -81.51759 | 17505 ft | 352 kts | 172° |
| 2026-04-26 19:06 | 28.63045 | -81.51211 | 17514 ft | 352 kts | 172° |
| 2026-04-26 19:06 | 28.60632 | -81.50661 | 17511 ft | 353 kts | 172° |
| 2026-04-26 19:06 | 28.58215 | -81.50110 | 17506 ft | 354 kts | 172° |
| 2026-04-26 19:06 | 28.55801 | -81.49561 | 17505 ft | 354 kts | 172° |
| 2026-04-26 19:07 | 28.53385 | -81.49011 | 17506 ft | 354 kts | 172° |
| 2026-04-26 19:07 | 28.50967 | -81.48460 | 17498 ft | 355 kts | 172° |
| 2026-04-26 19:07 | 28.48549 | -81.47911 | 17503 ft | 355 kts | 172° |
| 2026-04-26 19:07 | 28.46127 | -81.47360 | 17515 ft | 355 kts | 172° |
| 2026-04-26 19:08 | 28.43703 | -81.46809 | 17517 ft | 355 kts | 172° |
| 2026-04-26 19:08 | 28.41284 | -81.46260 | 17517 ft | 355 kts | 172° |
| 2026-04-26 19:08 | 28.38891 | -81.45717 | 17509 ft | 355 kts | 171° |
| 2026-04-26 19:08 | 28.36461 | -81.45165 | 17519 ft | 355 kts | 171° |
| 2026-04-26 19:09 | 28.34036 | -81.44615 | 17520 ft | 355 kts | 171° |
| 2026-04-26 19:09 | 28.31612 | -81.44066 | 17517 ft | 356 kts | 171° |
| 2026-04-26 19:09 | 28.29181 | -81.43515 | 17515 ft | 356 kts | 171° |
| 2026-04-26 19:09 | 28.26748 | -81.42964 | 17517 ft | 356 kts | 171° |
| 2026-04-26 19:10 | 28.24326 | -81.42416 | 17513 ft | 356 kts | 171° |
| 2026-04-26 19:10 | 28.21893 | -81.41865 | 17515 ft | 356 kts | 171° |
| 2026-04-26 19:10 | 28.19459 | -81.41315 | 17515 ft | 356 kts | 171° |
| 2026-04-26 19:10 | 28.17029 | -81.40766 | 17515 ft | 356 kts | 171° |
| 2026-04-26 19:11 | 28.14598 | -81.40216 | 17512 ft | 356 kts | 171° |
| 2026-04-26 19:11 | 28.12159 | -81.39666 | 17506 ft | 356 kts | 171° |
| 2026-04-26 19:11 | 28.09730 | -81.39117 | 17496 ft | 356 kts | 171° |
| 2026-04-26 19:11 | 28.07301 | -81.38569 | 17510 ft | 356 kts | 171° |
| 2026-04-26 19:12 | 28.04874 | -81.38022 | 17516 ft | 356 kts | 171° |
| 2026-04-26 19:12 | 28.02439 | -81.37473 | 17512 ft | 356 kts | 171° |
| 2026-04-26 19:12 | 28.00009 | -81.36926 | 17503 ft | 356 kts | 171° |
| 2026-04-26 19:12 | 27.97572 | -81.36377 | 17510 ft | 356 kts | 171° |
| 2026-04-26 19:13 | 27.95169 | -81.35836 | 17508 ft | 356 kts | 171° |
| 2026-04-26 19:13 | 27.92741 | -81.35289 | 17500 ft | 356 kts | 171° |
| 2026-04-26 19:13 | 27.90309 | -81.34748 | 17503 ft | 356 kts | 173° |
| 2026-04-26 19:13 | 27.87855 | -81.34400 | 17496 ft | 354 kts | 178° |
| 2026-04-26 19:14 | 27.85399 | -81.34268 | 17495 ft | 353 kts | 182° |
| 2026-04-26 19:14 | 27.82942 | -81.34294 | 17500 ft | 352 kts | 184° |
| 2026-04-26 19:14 | 27.80495 | -81.34365 | 17490 ft | 352 kts | 185° |
| 2026-04-26 19:14 | 27.79668 | -81.34392 | 17488 ft | 352 kts | 185° |
| 2026-04-26 19:15 | 27.75596 | -81.34542 | 17489 ft | 352 kts | 185° |
| 2026-04-26 19:15 | 27.73156 | -81.34637 | 17490 ft | 352 kts | 185° |
| 2026-04-26 19:15 | 27.70716 | -81.34733 | 17465 ft | 341 kts | 185° |
| 2026-04-26 19:15 | 27.68491 | -81.34815 | 17862 ft | 294 kts | 186° |
| 2026-04-26 19:16 | 27.66467 | -81.34894 | 17425 ft | 282 kts | 186° |
| 2026-04-26 19:16 | 27.64568 | -81.34972 | 17266 ft | 263 kts | 186° |
| 2026-04-26 19:16 | 27.62649 | -81.35146 | 15246 ft | 301 kts | 198° |
| 2026-04-26 19:16 | 27.60669 | -81.36273 | 12697 ft | 340 kts | 224° |
| 2026-04-26 19:17 | 27.59198 | -81.38450 | 9992 ft | 366 kts | 246° |
| 2026-04-26 19:17 | 27.58589 | -81.41305 | 7043 ft | 381 kts | 269° |
| 2026-04-26 19:17 | 27.59019 | -81.44262 | 4101 ft | 389 kts | 290° |
| 2026-04-26 19:17 | 27.60601 | -81.46704 | 2606 ft | 372 kts | 316° |
| 2026-04-26 19:18 | 27.62748 | -81.47924 | 2267 ft | 330 kts | 342° |
| 2026-04-26 19:18 | 27.64241 | -81.48016 | 2274 ft | 304 kts | 3° |
| 2026-04-26 19:18 | 27.66564 | -81.46736 | 2151 ft | 269 kts | 47° |
| 2026-04-26 19:18 | 27.67564 | -81.45104 | 2154 ft | 237 kts | 56° |
| 2026-04-26 19:19 | 27.68533 | -81.43705 | 2172 ft | 224 kts | 41° |
| 2026-04-26 19:19 | 27.69317 | -81.42979 | 2176 ft | 214 kts | 32° |
| 2026-04-26 19:19 | 27.70638 | -81.42178 | 2182 ft | 214 kts | 20° |
| 2026-04-26 19:19 | 27.72558 | -81.41504 | 2214 ft | 216 kts | 9° |
| 2026-04-26 19:20 | 27.73528 | -81.41281 | 2226 ft | 215 kts | 8° |
| 2026-04-26 19:20 | 27.74523 | -81.41097 | 2173 ft | 211 kts | 7° |
| 2026-04-26 19:20 | 27.76363 | -81.40263 | 2173 ft | 224 kts | 37° |
| 2026-04-26 19:20 | 27.77290 | -81.38896 | 2204 ft | 219 kts | 68° |
| 2026-04-26 19:21 | 27.77483 | -81.37188 | 2168 ft | 225 kts | 101° |
| 2026-04-26 19:21 | 27.76827 | -81.35619 | 2178 ft | 224 kts | 136° |
| 2026-04-26 19:21 | 27.75548 | -81.34722 | 2203 ft | 217 kts | 168° |
| 2026-04-26 19:21 | 27.74081 | -81.34564 | 2190 ft | 211 kts | 185° |
| 2026-04-26 19:22 | 27.72633 | -81.34613 | 2180 ft | 210 kts | 185° |
| 2026-04-26 19:22 | 27.71167 | -81.34685 | 2200 ft | 209 kts | 186° |
| 2026-04-26 19:22 | 27.69716 | -81.34755 | 2200 ft | 208 kts | 184° |
| 2026-04-26 19:22 | 27.68253 | -81.34821 | 2201 ft | 209 kts | 186° |
| 2026-04-26 19:23 | 27.66817 | -81.34884 | 2195 ft | 210 kts | 186° |
| 2026-04-26 19:23 | 27.65357 | -81.34955 | 2194 ft | 210 kts | 188° |
| 2026-04-26 19:23 | 27.63963 | -81.35362 | 2195 ft | 210 kts | 210° |
| 2026-04-26 19:23 | 27.62912 | -81.36428 | 2179 ft | 205 kts | 240° |
| 2026-04-26 19:24 | 27.62491 | -81.37923 | 2185 ft | 200 kts | 269° |
| 2026-04-26 19:24 | 27.62791 | -81.39468 | 2210 ft | 204 kts | 298° |
| 2026-04-26 19:24 | 27.65106 | -81.41105 | 2165 ft | 206 kts | 352° |
| 2026-04-26 19:25 | 27.66563 | -81.41133 | 2189 ft | 208 kts | 358° |
| 2026-04-26 19:25 | 27.67538 | -81.41105 | 2228 ft | 213 kts | 0° |
| 2026-04-26 19:25 | 27.70938 | -81.40966 | 2183 ft | 212 kts | 358° |
| 2026-04-26 19:26 | 27.72414 | -81.40906 | 2203 ft | 211 kts | 358° |
| 2026-04-26 19:26 | 27.73899 | -81.40846 | 2188 ft | 213 kts | 359° |
| 2026-04-26 19:26 | 27.75368 | -81.40671 | 2196 ft | 215 kts | 11° |
| 2026-04-26 19:26 | 27.76689 | -81.39851 | 2191 ft | 222 kts | 43° |
| 2026-04-26 19:27 | 27.77436 | -81.38385 | 2215 ft | 222 kts | 76° |
| 2026-04-26 19:27 | 27.77378 | -81.36666 | 2168 ft | 224 kts | 111° |
| 2026-04-26 19:27 | 27.76493 | -81.35251 | 2188 ft | 218 kts | 146° |
| 2026-04-26 19:27 | 27.75122 | -81.34625 | 2214 ft | 214 kts | 176° |
| 2026-04-26 19:28 | 27.73649 | -81.34571 | 2197 ft | 210 kts | 185° |
| 2026-04-26 19:28 | 27.72203 | -81.34633 | 2182 ft | 210 kts | 186° |
| 2026-04-26 19:28 | 27.70739 | -81.34707 | 2186 ft | 209 kts | 185° |
| 2026-04-26 19:28 | 27.69287 | -81.34776 | 2199 ft | 209 kts | 185° |
| 2026-04-26 19:29 | 27.67841 | -81.34841 | 2215 ft | 208 kts | 186° |
| 2026-04-26 19:29 | 27.66387 | -81.34905 | 2169 ft | 208 kts | 184° |
| 2026-04-26 19:29 | 27.64930 | -81.35013 | 2195 ft | 209 kts | 194° |
| 2026-04-26 19:29 | 27.63598 | -81.35615 | 2196 ft | 208 kts | 219° |
| 2026-04-26 19:30 | 27.62714 | -81.36846 | 2201 ft | 208 kts | 248° |
| 2026-04-26 19:30 | 27.62507 | -81.38383 | 2178 ft | 201 kts | 277° |
| 2026-04-26 19:30 | 27.63016 | -81.39856 | 2255 ft | 202 kts | 305° |
| 2026-04-26 19:30 | 27.63707 | -81.40592 | 2221 ft | 206 kts | 327° |
| 2026-04-26 19:31 | 27.65532 | -81.41118 | 2158 ft | 209 kts | 355° |
| 2026-04-26 19:31 | 27.66981 | -81.41109 | 2199 ft | 213 kts | 357° |
| 2026-04-26 19:31 | 27.68454 | -81.41059 | 2198 ft | 210 kts | 359° |
| 2026-04-26 19:31 | 27.69927 | -81.41002 | 2159 ft | 211 kts | 360° |
| 2026-04-26 19:32 | 27.71402 | -81.40945 | 2190 ft | 213 kts | 358° |
| 2026-04-26 19:32 | 27.72858 | -81.40888 | 2189 ft | 211 kts | 0° |
| 2026-04-26 19:32 | 27.74338 | -81.40826 | 2179 ft | 211 kts | 0° |
| 2026-04-26 19:32 | 27.75795 | -81.40512 | 2181 ft | 216 kts | 20° |
| 2026-04-26 19:33 | 27.76990 | -81.39468 | 2194 ft | 220 kts | 53° |
| 2026-04-26 19:33 | 27.77516 | -81.37858 | 2193 ft | 223 kts | 86° |
| 2026-04-26 19:33 | 27.77182 | -81.36160 | 2195 ft | 227 kts | 121° |
| 2026-04-26 19:33 | 27.76086 | -81.34936 | 2186 ft | 217 kts | 158° |
| 2026-04-26 19:34 | 27.74640 | -81.34562 | 2200 ft | 211 kts | 180° |
| 2026-04-26 19:34 | 27.73176 | -81.34579 | 2191 ft | 208 kts | 187° |
| 2026-04-26 19:34 | 27.71739 | -81.34652 | 2189 ft | 213 kts | 185° |
| 2026-04-26 19:34 | 27.70277 | -81.34727 | 2183 ft | 211 kts | 185° |
| 2026-04-26 19:35 | 27.68821 | -81.34797 | 2187 ft | 209 kts | 185° |
| 2026-04-26 19:35 | 27.67356 | -81.34864 | 2195 ft | 212 kts | 186° |
| 2026-04-26 19:35 | 27.65877 | -81.34928 | 2185 ft | 213 kts | 187° |
| 2026-04-26 19:35 | 27.64420 | -81.35153 | 2198 ft | 208 kts | 203° |
| 2026-04-26 19:36 | 27.63230 | -81.35982 | 2194 ft | 204 kts | 229° |
| 2026-04-26 19:36 | 27.62698 | -81.36890 | 2237 ft | 208 kts | 249° |
| 2026-04-26 19:36 | 27.62611 | -81.38950 | 2175 ft | 200 kts | 288° |
| 2026-04-26 19:36 | 27.63358 | -81.40275 | 2186 ft | 205 kts | 316° |
| 2026-04-26 19:37 | 27.64617 | -81.41017 | 2158 ft | 205 kts | 345° |
| 2026-04-26 19:37 | 27.66054 | -81.41131 | 2161 ft | 207 kts | 356° |
| 2026-04-26 19:37 | 27.67521 | -81.41100 | 2217 ft | 213 kts | 359° |
| 2026-04-26 19:37 | 27.68983 | -81.41042 | 2200 ft | 212 kts | 360° |
| 2026-04-26 19:38 | 27.70439 | -81.40982 | 2183 ft | 213 kts | 358° |
| 2026-04-26 19:38 | 27.71919 | -81.40923 | 2208 ft | 213 kts | 360° |
| 2026-04-26 19:38 | 27.73397 | -81.40861 | 2223 ft | 214 kts | 359° |
| 2026-04-26 19:38 | 27.74874 | -81.40772 | 2196 ft | 215 kts | 4° |
| 2026-04-26 19:39 | 27.76283 | -81.40215 | 2173 ft | 222 kts | 31° |
| 2026-04-26 19:39 | 27.77272 | -81.38917 | 2200 ft | 220 kts | 65° |
| 2026-04-26 19:39 | 27.77495 | -81.37190 | 2187 ft | 228 kts | 100° |
| 2026-04-26 19:39 | 27.76861 | -81.35638 | 2179 ft | 222 kts | 135° |
| 2026-04-26 19:40 | 27.75585 | -81.34721 | 2190 ft | 218 kts | 168° |
| 2026-04-26 19:40 | 27.74115 | -81.34559 | 2185 ft | 212 kts | 185° |
| 2026-04-26 19:40 | 27.72687 | -81.34604 | 2167 ft | 195 kts | 187° |
| 2026-04-26 19:40 | 27.71413 | -81.34662 | 2162 ft | 172 kts | 185° |
| 2026-04-26 19:41 | 27.70261 | -81.34718 | 2175 ft | 166 kts | 186° |
| 2026-04-26 19:41 | 27.69122 | -81.34777 | 2237 ft | 165 kts | 186° |
| 2026-04-26 19:41 | 27.67970 | -81.34833 | 2231 ft | 165 kts | 187° |
| 2026-04-26 19:41 | 27.67214 | -81.34869 | 2193 ft | 164 kts | 186° |
| 2026-04-26 19:42 | 27.65684 | -81.34938 | 2190 ft | 166 kts | 186° |
| 2026-04-26 19:42 | 27.64546 | -81.35072 | 2215 ft | 164 kts | 197° |
| 2026-04-26 19:42 | 27.63512 | -81.35561 | 2226 ft | 165 kts | 216° |
| 2026-04-26 19:42 | 27.62737 | -81.36451 | 2177 ft | 159 kts | 241° |
| 2026-04-26 19:43 | 27.62345 | -81.37618 | 2205 ft | 156 kts | 263° |
| 2026-04-26 19:43 | 27.62390 | -81.38819 | 2180 ft | 153 kts | 282° |
| 2026-04-26 19:43 | 27.62827 | -81.39904 | 2162 ft | 155 kts | 302° |
| 2026-04-26 19:43 | 27.63606 | -81.40767 | 2183 ft | 158 kts | 322° |
| 2026-04-26 19:44 | 27.64627 | -81.41243 | 2182 ft | 162 kts | 345° |
| 2026-04-26 19:44 | 27.65755 | -81.41327 | 2190 ft | 166 kts | 356° |
| 2026-04-26 19:44 | 27.66908 | -81.41267 | 2205 ft | 168 kts | 1° |
| 2026-04-26 19:44 | 27.68056 | -81.41179 | 2180 ft | 167 kts | 359° |
| 2026-04-26 19:45 | 27.69207 | -81.41094 | 2204 ft | 167 kts | 360° |
| 2026-04-26 19:45 | 27.70323 | -81.41015 | 2173 ft | 162 kts | 358° |
| 2026-04-26 19:45 | 27.71426 | -81.40949 | 2184 ft | 160 kts | 1° |
| 2026-04-26 19:45 | 27.72523 | -81.40894 | 2191 ft | 160 kts | 360° |
| 2026-04-26 19:46 | 27.73644 | -81.40836 | 2192 ft | 158 kts | 357° |
| 2026-04-26 19:46 | 27.74756 | -81.40780 | 2197 ft | 161 kts | 1° |
| 2026-04-26 19:46 | 27.75850 | -81.40540 | 2181 ft | 166 kts | 15° |
| 2026-04-26 19:46 | 27.76844 | -81.39882 | 2192 ft | 167 kts | 39° |
| 2026-04-26 19:47 | 27.77521 | -81.38835 | 2213 ft | 168 kts | 64° |
| 2026-04-26 19:47 | 27.77740 | -81.37974 | 2181 ft | 168 kts | 82° |
| 2026-04-26 19:47 | 27.77515 | -81.36247 | 2206 ft | 172 kts | 115° |
| 2026-04-26 19:47 | 27.76834 | -81.35172 | 2180 ft | 166 kts | 140° |
| 2026-04-26 19:48 | 27.75853 | -81.34504 | 2194 ft | 166 kts | 164° |
| 2026-04-26 19:48 | 27.74747 | -81.34292 | 2188 ft | 158 kts | 185° |
| 2026-04-26 19:48 | 27.73645 | -81.34348 | 2187 ft | 156 kts | 189° |
| 2026-04-26 19:48 | 27.72561 | -81.34460 | 2176 ft | 154 kts | 190° |
| 2026-04-26 19:49 | 27.71478 | -81.34576 | 2188 ft | 157 kts | 190° |
| 2026-04-26 19:49 | 27.70400 | -81.34678 | 2192 ft | 155 kts | 189° |
| 2026-04-26 19:49 | 27.69317 | -81.34771 | 2186 ft | 154 kts | 186° |
| 2026-04-26 19:49 | 27.68232 | -81.34846 | 2195 ft | 156 kts | 188° |
| 2026-04-26 19:50 | 27.67145 | -81.34916 | 2198 ft | 160 kts | 188° |
| 2026-04-26 19:50 | 27.66038 | -81.34979 | 2170 ft | 158 kts | 184° |
| 2026-04-26 19:50 | 27.64924 | -81.35052 | 2198 ft | 159 kts | 193° |
| 2026-04-26 19:50 | 27.63877 | -81.35376 | 2223 ft | 156 kts | 208° |
| 2026-04-26 19:51 | 27.63012 | -81.36071 | 2174 ft | 149 kts | 230° |
| 2026-04-26 19:51 | 27.62463 | -81.37090 | 2187 ft | 152 kts | 251° |
| 2026-04-26 19:51 | 27.62311 | -81.38208 | 2163 ft | 145 kts | 273° |
| 2026-04-26 19:51 | 27.62534 | -81.39335 | 2199 ft | 147 kts | 292° |
| 2026-04-26 19:52 | 27.63098 | -81.40306 | 2210 ft | 154 kts | 311° |
| 2026-04-26 19:52 | 27.63955 | -81.40992 | 2197 ft | 151 kts | 333° |
| 2026-04-26 19:52 | 27.65000 | -81.41283 | 2176 ft | 158 kts | 351° |
| 2026-04-26 19:52 | 27.66098 | -81.41285 | 2183 ft | 156 kts | 356° |
| 2026-04-26 19:53 | 27.67201 | -81.41204 | 2192 ft | 156 kts | 360° |
| 2026-04-26 19:53 | 27.68300 | -81.41104 | 2189 ft | 159 kts | 1° |
| 2026-04-26 19:53 | 27.69391 | -81.41014 | 2189 ft | 158 kts | 358° |
| 2026-04-26 19:53 | 27.70487 | -81.40938 | 2184 ft | 160 kts | 358° |
| 2026-04-26 19:54 | 27.71586 | -81.40875 | 2190 ft | 159 kts | 359° |
| 2026-04-26 19:54 | 27.72697 | -81.40820 | 2192 ft | 161 kts | 360° |
| 2026-04-26 19:54 | 27.73796 | -81.40767 | 2195 ft | 158 kts | 356° |
| 2026-04-26 19:54 | 27.74906 | -81.40703 | 2194 ft | 159 kts | 1° |
| 2026-04-26 19:55 | 27.76005 | -81.40414 | 2178 ft | 165 kts | 19° |
| 2026-04-26 19:55 | 27.76961 | -81.39696 | 2188 ft | 166 kts | 43° |
| 2026-04-26 19:55 | 27.77590 | -81.38570 | 2196 ft | 172 kts | 69° |
| 2026-04-26 19:55 | 27.77743 | -81.37241 | 2170 ft | 171 kts | 95° |
| 2026-04-26 19:56 | 27.77397 | -81.35990 | 2196 ft | 168 kts | 120° |
| 2026-04-26 19:56 | 27.76646 | -81.34995 | 2179 ft | 168 kts | 144° |
| 2026-04-26 19:56 | 27.75623 | -81.34414 | 2216 ft | 166 kts | 168° |
| 2026-04-26 19:56 | 27.74514 | -81.34282 | 2197 ft | 159 kts | 184° |
| 2026-04-26 19:57 | 27.73412 | -81.34360 | 2196 ft | 157 kts | 190° |
| 2026-04-26 19:57 | 27.72340 | -81.34476 | 2186 ft | 155 kts | 190° |
| 2026-04-26 19:57 | 27.71254 | -81.34592 | 2196 ft | 158 kts | 188° |
| 2026-04-26 19:57 | 27.70175 | -81.34692 | 2192 ft | 157 kts | 189° |
| 2026-04-26 19:58 | 27.69098 | -81.34779 | 2192 ft | 152 kts | 188° |
| 2026-04-26 19:58 | 27.68012 | -81.34854 | 2203 ft | 156 kts | 188° |
| 2026-04-26 19:58 | 27.66921 | -81.34925 | 2203 ft | 161 kts | 188° |
| 2026-04-26 19:58 | 27.65815 | -81.34986 | 2194 ft | 162 kts | 186° |
| 2026-04-26 19:59 | 27.64703 | -81.35086 | 2205 ft | 160 kts | 195° |
| 2026-04-26 19:59 | 27.63687 | -81.35480 | 2192 ft | 154 kts | 213° |
| 2026-04-26 19:59 | 27.62892 | -81.36239 | 2197 ft | 145 kts | 236° |
| 2026-04-26 19:59 | 27.62430 | -81.37258 | 2193 ft | 147 kts | 255° |
| 2026-04-26 20:00 | 27.62333 | -81.38396 | 2156 ft | 142 kts | 277° |
| 2026-04-26 20:00 | 27.62610 | -81.39491 | 2190 ft | 151 kts | 295° |
| 2026-04-26 20:00 | 27.63235 | -81.40450 | 2194 ft | 152 kts | 314° |
| 2026-04-26 20:00 | 27.64129 | -81.41083 | 2190 ft | 154 kts | 335° |
| 2026-04-26 20:01 | 27.65181 | -81.41316 | 2203 ft | 158 kts | 352° |
| 2026-04-26 20:01 | 27.66278 | -81.41290 | 2198 ft | 158 kts | 358° |
| 2026-04-26 20:01 | 27.67376 | -81.41194 | 2197 ft | 156 kts | 359° |
| 2026-04-26 20:01 | 27.68475 | -81.41092 | 2192 ft | 155 kts | 1° |
| 2026-04-26 20:02 | 27.69565 | -81.41003 | 2175 ft | 155 kts | 1° |
| 2026-04-26 20:02 | 27.70663 | -81.40928 | 2190 ft | 156 kts | 359° |
| 2026-04-26 20:02 | 27.71766 | -81.40867 | 2194 ft | 160 kts | 359° |
| 2026-04-26 20:02 | 27.72505 | -81.40831 | 2193 ft | 160 kts | 359° |
| 2026-04-26 20:03 | 27.73980 | -81.40759 | 2205 ft | 162 kts | 358° |
| 2026-04-26 20:03 | 27.75087 | -81.40676 | 2202 ft | 162 kts | 3° |
| 2026-04-26 20:03 | 27.76173 | -81.40326 | 2179 ft | 163 kts | 24° |
| 2026-04-26 20:03 | 27.77086 | -81.39541 | 2193 ft | 166 kts | 47° |
| 2026-04-26 20:04 | 27.77645 | -81.38376 | 2192 ft | 171 kts | 72° |
| 2026-04-26 20:04 | 27.77724 | -81.37036 | 2165 ft | 168 kts | 99° |
| 2026-04-26 20:04 | 27.77301 | -81.35786 | 2225 ft | 170 kts | 124° |
| 2026-04-26 20:04 | 27.76488 | -81.34856 | 2173 ft | 166 kts | 149° |
| 2026-04-26 20:05 | 27.75459 | -81.34369 | 2194 ft | 162 kts | 172° |
| 2026-04-26 20:05 | 27.74353 | -81.34292 | 2205 ft | 158 kts | 187° |
| 2026-04-26 20:05 | 27.73259 | -81.34381 | 2189 ft | 158 kts | 189° |
| 2026-04-26 20:05 | 27.72186 | -81.34497 | 2179 ft | 153 kts | 191° |
| 2026-04-26 20:06 | 27.71099 | -81.34611 | 2203 ft | 158 kts | 190° |
| 2026-04-26 20:06 | 27.70016 | -81.34709 | 2164 ft | 157 kts | 190° |
| 2026-04-26 20:06 | 27.68929 | -81.34795 | 2179 ft | 157 kts | 186° |
| 2026-04-26 20:06 | 27.67832 | -81.34868 | 2196 ft | 158 kts | 187° |
| 2026-04-26 20:07 | 27.66742 | -81.34934 | 2149 ft | 155 kts | 188° |
| 2026-04-26 20:07 | 27.65656 | -81.34991 | 2175 ft | 158 kts | 185° |
| 2026-04-26 20:07 | 27.64565 | -81.35117 | 2179 ft | 156 kts | 198° |
| 2026-04-26 20:07 | 27.63580 | -81.35556 | 2174 ft | 157 kts | 215° |
| 2026-04-26 20:08 | 27.63033 | -81.36058 | 2166 ft | 146 kts | 231° |
| 2026-04-26 20:08 | 27.62394 | -81.37415 | 2177 ft | 143 kts | 258° |
| 2026-04-26 20:08 | 27.62350 | -81.38522 | 2142 ft | 140 kts | 278° |
| 2026-04-26 20:08 | 27.62521 | -81.39255 | 2170 ft | 148 kts | 290° |
| 2026-04-26 20:09 | 27.63306 | -81.40513 | 2176 ft | 152 kts | 317° |
| 2026-04-26 20:09 | 27.64214 | -81.41115 | 2165 ft | 150 kts | 336° |
| 2026-04-26 20:09 | 27.64910 | -81.41293 | 2184 ft | 159 kts | 350° |
| 2026-04-26 20:09 | 27.65993 | -81.41312 | 2154 ft | 155 kts | 357° |
| 2026-04-26 20:10 | 27.67104 | -81.41231 | 2186 ft | 158 kts | 0° |
| 2026-04-26 20:10 | 27.68200 | -81.41135 | 2172 ft | 160 kts | 360° |
| 2026-04-26 20:10 | 27.69306 | -81.41044 | 2164 ft | 160 kts | 2° |
| 2026-04-26 20:10 | 27.70414 | -81.40963 | 2162 ft | 159 kts | 359° |
| 2026-04-26 20:11 | 27.71530 | -81.40895 | 2186 ft | 158 kts | 357° |
| 2026-04-26 20:11 | 27.72636 | -81.40834 | 2177 ft | 162 kts | 359° |
| 2026-04-26 20:11 | 27.73745 | -81.40776 | 2172 ft | 161 kts | 358° |
| 2026-04-26 20:12 | 27.75943 | -81.40449 | 2172 ft | 164 kts | 17° |
| 2026-04-26 20:12 | 27.76908 | -81.39766 | 2188 ft | 166 kts | 41° |
| 2026-04-26 20:12 | 27.77557 | -81.38679 | 2182 ft | 171 kts | 68° |
| 2026-04-26 20:12 | 27.77752 | -81.37360 | 2171 ft | 172 kts | 92° |
| 2026-04-26 20:13 | 27.77451 | -81.36085 | 2184 ft | 166 kts | 119° |
| 2026-04-26 20:13 | 27.76732 | -81.35072 | 2163 ft | 165 kts | 143° |
| 2026-04-26 20:13 | 27.75720 | -81.34449 | 2173 ft | 164 kts | 168° |
| 2026-04-26 20:13 | 27.74613 | -81.34289 | 2177 ft | 161 kts | 184° |
| 2026-04-26 20:14 | 27.73527 | -81.34356 | 2176 ft | 157 kts | 191° |
| 2026-04-26 20:14 | 27.72450 | -81.34471 | 2172 ft | 154 kts | 191° |
| 2026-04-26 20:14 | 27.71365 | -81.34587 | 2162 ft | 157 kts | 189° |
| 2026-04-26 20:14 | 27.70274 | -81.34688 | 2184 ft | 156 kts | 190° |
| 2026-04-26 20:15 | 27.69190 | -81.34776 | 2171 ft | 155 kts | 186° |
| 2026-04-26 20:15 | 27.68099 | -81.34850 | 2172 ft | 159 kts | 188° |
| 2026-04-26 20:15 | 27.67005 | -81.34917 | 2177 ft | 156 kts | 186° |
| 2026-04-26 20:15 | 27.65917 | -81.34976 | 2162 ft | 156 kts | 187° |
| 2026-04-26 20:16 | 27.64843 | -81.35061 | 2175 ft | 157 kts | 191° |
| 2026-04-26 20:16 | 27.63801 | -81.35415 | 2177 ft | 154 kts | 211° |
| 2026-04-26 20:16 | 27.62981 | -81.36127 | 2170 ft | 145 kts | 233° |
| 2026-04-26 20:16 | 27.62476 | -81.37120 | 2173 ft | 155 kts | 253° |
| 2026-04-26 20:17 | 27.62325 | -81.38255 | 2163 ft | 148 kts | 274° |
| 2026-04-26 20:17 | 27.62564 | -81.39398 | 2175 ft | 152 kts | 293° |
| 2026-04-26 20:17 | 27.63155 | -81.40373 | 2182 ft | 150 kts | 313° |
| 2026-04-26 20:17 | 27.64009 | -81.41026 | 2184 ft | 149 kts | 334° |
| 2026-04-26 20:18 | 27.65058 | -81.41310 | 2178 ft | 154 kts | 353° |
| 2026-04-26 20:18 | 27.66140 | -81.41301 | 2168 ft | 161 kts | 359° |
| 2026-04-26 20:18 | 27.67249 | -81.41216 | 2179 ft | 157 kts | 1° |
| 2026-04-26 20:18 | 27.68350 | -81.41121 | 2177 ft | 159 kts | 1° |
| 2026-04-26 20:19 | 27.69443 | -81.41032 | 2160 ft | 160 kts | 1° |
| 2026-04-26 20:19 | 27.70553 | -81.40954 | 2167 ft | 161 kts | 359° |
| 2026-04-26 20:19 | 27.71667 | -81.40885 | 2162 ft | 157 kts | 358° |
| 2026-04-26 20:19 | 27.72780 | -81.40824 | 2180 ft | 161 kts | 357° |
| 2026-04-26 20:20 | 27.73893 | -81.40768 | 2203 ft | 161 kts | 360° |
| 2026-04-26 20:20 | 27.75006 | -81.40692 | 2166 ft | 161 kts | 4° |
| 2026-04-26 20:20 | 27.76104 | -81.40364 | 2149 ft | 164 kts | 21° |
| 2026-04-26 20:20 | 27.77028 | -81.39612 | 2174 ft | 166 kts | 46° |
| 2026-04-26 20:21 | 27.77606 | -81.38504 | 2172 ft | 170 kts | 69° |
| 2026-04-26 20:21 | 27.77732 | -81.37184 | 2184 ft | 171 kts | 96° |
| 2026-04-26 20:21 | 27.77365 | -81.35913 | 2190 ft | 171 kts | 123° |
| 2026-04-26 20:21 | 27.76585 | -81.34932 | 2179 ft | 166 kts | 148° |
| 2026-04-26 20:22 | 27.75535 | -81.34381 | 2175 ft | 164 kts | 172° |
| 2026-04-26 20:22 | 27.74422 | -81.34280 | 2170 ft | 161 kts | 187° |
| 2026-04-26 20:22 | 27.73326 | -81.34367 | 2157 ft | 158 kts | 191° |
| 2026-04-26 20:22 | 27.72247 | -81.34487 | 2174 ft | 155 kts | 190° |
| 2026-04-26 20:23 | 27.71164 | -81.34603 | 2166 ft | 158 kts | 189° |
| 2026-04-26 20:23 | 27.69951 | -81.34714 | 2165 ft | 156 kts | 188° |
| 2026-04-26 20:23 | 27.68865 | -81.34798 | 2186 ft | 157 kts | 186° |
| 2026-04-26 20:23 | 27.67769 | -81.34871 | 2172 ft | 158 kts | 187° |
| 2026-04-26 20:24 | 27.66690 | -81.34935 | 2165 ft | 156 kts | 186° |
| 2026-04-26 20:24 | 27.65600 | -81.34992 | 2168 ft | 156 kts | 185° |
| 2026-04-26 20:24 | 27.64517 | -81.35128 | 2183 ft | 156 kts | 198° |
| 2026-04-26 20:24 | 27.63538 | -81.35587 | 2174 ft | 155 kts | 216° |
| 2026-04-26 20:25 | 27.62781 | -81.36417 | 2160 ft | 147 kts | 238° |
| 2026-04-26 20:25 | 27.62476 | -81.37101 | 2161 ft | 149 kts | 254° |
| 2026-04-26 20:25 | 27.62364 | -81.38640 | 2148 ft | 143 kts | 281° |
| 2026-04-26 20:25 | 27.62716 | -81.39699 | 2176 ft | 152 kts | 299° |
| 2026-04-26 20:26 | 27.63396 | -81.40589 | 2181 ft | 151 kts | 319° |
| 2026-04-26 20:26 | 27.64318 | -81.41141 | 2188 ft | 154 kts | 337° |
| 2026-04-26 20:26 | 27.65373 | -81.41318 | 2156 ft | 155 kts | 354° |
| 2026-04-26 20:26 | 27.66469 | -81.41292 | 2169 ft | 160 kts | 360° |
| 2026-04-26 20:27 | 27.67564 | -81.41217 | 2178 ft | 158 kts | 360° |
| 2026-04-26 20:27 | 27.68657 | -81.41135 | 2173 ft | 159 kts | 360° |
| 2026-04-26 20:27 | 27.69764 | -81.41059 | 2170 ft | 160 kts | 359° |
| 2026-04-26 20:27 | 27.70872 | -81.40992 | 2186 ft | 161 kts | 358° |
| 2026-04-26 20:28 | 27.71975 | -81.40929 | 2175 ft | 159 kts | 359° |
| 2026-04-26 20:28 | 27.73092 | -81.40869 | 2173 ft | 156 kts | 358° |
| 2026-04-26 20:28 | 27.74203 | -81.40814 | 2210 ft | 162 kts | 359° |
| 2026-04-26 20:28 | 27.75312 | -81.40701 | 2166 ft | 164 kts | 5° |
| 2026-04-26 20:29 | 27.76382 | -81.40264 | 2164 ft | 165 kts | 26° |
| 2026-04-26 20:29 | 27.77229 | -81.39399 | 2171 ft | 165 kts | 51° |
| 2026-04-26 20:29 | 27.77704 | -81.38196 | 2164 ft | 169 kts | 77° |
| 2026-04-26 20:29 | 27.77702 | -81.36874 | 2160 ft | 170 kts | 103° |
| 2026-04-26 20:30 | 27.77235 | -81.35683 | 2168 ft | 167 kts | 129° |
| 2026-04-26 20:30 | 27.76390 | -81.34791 | 2176 ft | 165 kts | 153° |
| 2026-04-26 20:30 | 27.75315 | -81.34339 | 2151 ft | 162 kts | 176° |
| 2026-04-26 20:30 | 27.74200 | -81.34299 | 2178 ft | 160 kts | 186° |
| 2026-04-26 20:31 | 27.73106 | -81.34397 | 2160 ft | 158 kts | 191° |
| 2026-04-26 20:31 | 27.72229 | -81.34495 | 2153 ft | 155 kts | 190° |
| 2026-04-26 20:31 | 27.71152 | -81.34608 | 2141 ft | 156 kts | 190° |
| 2026-04-26 20:31 | 27.70053 | -81.34710 | 2172 ft | 158 kts | 188° |
| 2026-04-26 20:32 | 27.68966 | -81.34796 | 2158 ft | 154 kts | 186° |
| 2026-04-26 20:32 | 27.67833 | -81.34877 | 1696 ft | 176 kts | 189° |
| 2026-04-26 20:32 | 27.66618 | -81.34955 | 1491 ft | 171 kts | 187° |
| 2026-04-26 20:32 | 27.65484 | -81.35006 | 1435 ft | 157 kts | 188° |
| 2026-04-26 20:33 | 27.64411 | -81.35161 | 1443 ft | 156 kts | 197° |
| 2026-04-26 20:33 | 27.63452 | -81.35650 | 1461 ft | 151 kts | 219° |
| 2026-04-26 20:33 | 27.62725 | -81.36502 | 1453 ft | 148 kts | 240° |
| 2026-04-26 20:33 | 27.62352 | -81.37581 | 1455 ft | 153 kts | 263° |
| 2026-04-26 20:34 | 27.62361 | -81.38753 | 1466 ft | 148 kts | 281° |
| 2026-04-26 20:34 | 27.62739 | -81.39809 | 1438 ft | 146 kts | 302° |
| 2026-04-26 20:34 | 27.63431 | -81.40653 | 1467 ft | 151 kts | 320° |
| 2026-04-26 20:34 | 27.64370 | -81.41187 | 1482 ft | 150 kts | 342° |
| 2026-04-26 20:35 | 27.65403 | -81.41324 | 1411 ft | 151 kts | 355° |
| 2026-04-26 20:35 | 27.66500 | -81.41276 | 1471 ft | 156 kts | 0° |
| 2026-04-26 20:35 | 27.67583 | -81.41182 | 1480 ft | 159 kts | 1° |
| 2026-04-26 20:35 | 27.68680 | -81.41088 | 1448 ft | 158 kts | 1° |
| 2026-04-26 20:36 | 27.69778 | -81.41011 | 1450 ft | 156 kts | 0° |
| 2026-04-26 20:36 | 27.70884 | -81.40929 | 1465 ft | 157 kts | 1° |
| 2026-04-26 20:36 | 27.71980 | -81.40860 | 1470 ft | 161 kts | 359° |
| 2026-04-26 20:36 | 27.73075 | -81.40800 | 1447 ft | 158 kts | 358° |
| 2026-04-26 20:37 | 27.74180 | -81.40747 | 1457 ft | 155 kts | 358° |
| 2026-04-26 20:37 | 27.75289 | -81.40643 | 1469 ft | 162 kts | 6° |
| 2026-04-26 20:37 | 27.76329 | -81.40235 | 1461 ft | 161 kts | 26° |
| 2026-04-26 20:37 | 27.77191 | -81.39399 | 1454 ft | 166 kts | 50° |
| 2026-04-26 20:38 | 27.77683 | -81.38212 | 1485 ft | 167 kts | 76° |
| 2026-04-26 20:38 | 27.77695 | -81.36902 | 1446 ft | 166 kts | 103° |
| 2026-04-26 20:38 | 27.77236 | -81.35692 | 1453 ft | 169 kts | 129° |
| 2026-04-26 20:38 | 27.76408 | -81.34802 | 1471 ft | 163 kts | 151° |
| 2026-04-26 20:39 | 27.75359 | -81.34349 | 1489 ft | 167 kts | 174° |
| 2026-04-26 20:39 | 27.74255 | -81.34289 | 1448 ft | 157 kts | 186° |
| 2026-04-26 20:39 | 27.73159 | -81.34384 | 1461 ft | 155 kts | 189° |
| 2026-04-26 20:39 | 27.72079 | -81.34503 | 1449 ft | 152 kts | 186° |
| 2026-04-26 20:40 | 27.71014 | -81.34610 | 1456 ft | 158 kts | 192° |
| 2026-04-26 20:40 | 27.69926 | -81.34724 | 1465 ft | 157 kts | 186° |
| 2026-04-26 20:40 | 27.68845 | -81.34836 | 1450 ft | 155 kts | 191° |
| 2026-04-26 20:40 | 27.67771 | -81.34914 | 1465 ft | 157 kts | 185° |
| 2026-04-26 20:41 | 27.66696 | -81.34985 | 1456 ft | 154 kts | 188° |
| 2026-04-26 20:41 | 27.65620 | -81.35056 | 1451 ft | 158 kts | 187° |
| 2026-04-26 20:41 | 27.64559 | -81.35241 | 1441 ft | 153 kts | 211° |
| 2026-04-26 20:41 | 27.63921 | -81.36142 | 1466 ft | 147 kts | 251° |
| 2026-04-26 20:42 | 27.63656 | -81.37288 | 1463 ft | 153 kts | 260° |
| 2026-04-26 20:42 | 27.63495 | -81.38450 | 1467 ft | 147 kts | 263° |
| 2026-04-26 20:42 | 27.63355 | -81.39592 | 1473 ft | 152 kts | 264° |
| 2026-04-26 20:42 | 27.63203 | -81.40745 | 1461 ft | 147 kts | 264° |
| 2026-04-26 20:43 | 27.63060 | -81.41866 | 1443 ft | 149 kts | 263° |
| 2026-04-26 20:43 | 27.62923 | -81.42989 | 1462 ft | 142 kts | 263° |
| 2026-04-26 20:43 | 27.62791 | -81.44137 | 1466 ft | 149 kts | 262° |
| 2026-04-26 20:43 | 27.62682 | -81.45242 | 1467 ft | 141 kts | 263° |
| 2026-04-26 20:44 | 27.62571 | -81.46363 | 1468 ft | 143 kts | 264° |
| 2026-04-26 20:44 | 27.62442 | -81.47471 | 1457 ft | 141 kts | 262° |
| 2026-04-26 20:44 | 27.62321 | -81.48565 | 1484 ft | 141 kts | 263° |
| 2026-04-26 20:44 | 27.62205 | -81.49686 | 1462 ft | 145 kts | 263° |
| 2026-04-26 20:45 | 27.62081 | -81.50808 | 1475 ft | 140 kts | 263° |
| 2026-04-26 20:45 | 27.61961 | -81.51895 | 1451 ft | 143 kts | 264° |
| 2026-04-26 20:45 | 27.61831 | -81.53039 | 1477 ft | 144 kts | 262° |
| 2026-04-26 20:45 | 27.61723 | -81.54129 | 1469 ft | 140 kts | 265° |
| 2026-04-26 20:46 | 27.61608 | -81.55236 | 1487 ft | 143 kts | 263° |
| 2026-04-26 20:46 | 27.61484 | -81.56380 | 1467 ft | 146 kts | 263° |
| 2026-04-26 20:46 | 27.61366 | -81.57501 | 1479 ft | 149 kts | 263° |
| 2026-04-26 20:46 | 27.61243 | -81.58649 | 1499 ft | 145 kts | 264° |
| 2026-04-26 20:47 | 27.61114 | -81.59761 | 1474 ft | 144 kts | 263° |
| 2026-04-26 20:47 | 27.61029 | -81.60507 | 1478 ft | 143 kts | 263° |
| 2026-04-26 20:47 | 27.60845 | -81.62007 | 1480 ft | 150 kts | 263° |
| 2026-04-26 20:47 | 27.60698 | -81.63164 | 1482 ft | 148 kts | 263° |
| 2026-04-26 20:48 | 27.60565 | -81.64307 | 1478 ft | 148 kts | 265° |
| 2026-04-26 20:48 | 27.60418 | -81.65477 | 1491 ft | 149 kts | 263° |
| 2026-04-26 20:48 | 27.60271 | -81.66637 | 1487 ft | 143 kts | 263° |
| 2026-04-26 20:48 | 27.60127 | -81.67738 | 1503 ft | 143 kts | 263° |
| 2026-04-26 20:49 | 27.59988 | -81.68837 | 1487 ft | 143 kts | 263° |
| 2026-04-26 20:49 | 27.59851 | -81.69940 | 1507 ft | 143 kts | 263° |
| 2026-04-26 20:49 | 27.59724 | -81.71032 | 1486 ft | 144 kts | 264° |
| 2026-04-26 20:49 | 27.59584 | -81.72161 | 1488 ft | 146 kts | 263° |
| 2026-04-26 20:50 | 27.59447 | -81.73281 | 1518 ft | 148 kts | 263° |
| 2026-04-26 20:50 | 27.59321 | -81.74387 | 1501 ft | 140 kts | 263° |
| 2026-04-26 20:50 | 27.59196 | -81.75515 | 1484 ft | 147 kts | 262° |
| 2026-04-26 20:50 | 27.59081 | -81.76639 | 1488 ft | 141 kts | 264° |
| 2026-04-26 20:51 | 27.58966 | -81.77726 | 1494 ft | 140 kts | 265° |
| 2026-04-26 20:51 | 27.58834 | -81.78809 | 1486 ft | 139 kts | 264° |
| 2026-04-26 20:51 | 27.58700 | -81.79890 | 1498 ft | 139 kts | 262° |
| 2026-04-26 20:51 | 27.58579 | -81.80975 | 1494 ft | 139 kts | 263° |
| 2026-04-26 20:52 | 27.58470 | -81.82062 | 1501 ft | 146 kts | 265° |
| 2026-04-26 20:52 | 27.58335 | -81.83207 | 1501 ft | 145 kts | 264° |
| 2026-04-26 20:52 | 27.58195 | -81.84325 | 1482 ft | 141 kts | 262° |
| 2026-04-26 20:52 | 27.58075 | -81.85438 | 1497 ft | 145 kts | 263° |
| 2026-04-26 20:53 | 27.57952 | -81.86561 | 1494 ft | 146 kts | 263° |
| 2026-04-26 20:53 | 27.57823 | -81.87676 | 1526 ft | 140 kts | 263° |
| 2026-04-26 20:53 | 27.57705 | -81.88792 | 1491 ft | 141 kts | 265° |
| 2026-04-26 20:53 | 27.57574 | -81.89907 | 1504 ft | 146 kts | 263° |
| 2026-04-26 20:54 | 27.57435 | -81.91037 | 1518 ft | 149 kts | 264° |
| 2026-04-26 20:54 | 27.57287 | -81.92162 | 1493 ft | 144 kts | 264° |
| 2026-04-26 20:54 | 27.57129 | -81.93268 | 1505 ft | 145 kts | 264° |
| 2026-04-26 20:54 | 27.56982 | -81.94366 | 1482 ft | 139 kts | 265° |
| 2026-04-26 20:55 | 27.56825 | -81.95473 | 1516 ft | 147 kts | 263° |
| 2026-04-26 20:55 | 27.56660 | -81.96578 | 1506 ft | 144 kts | 262° |
| 2026-04-26 20:55 | 27.56507 | -81.97688 | 1520 ft | 145 kts | 264° |
| 2026-04-26 20:55 | 27.56410 | -81.98791 | 1508 ft | 142 kts | 282° |
| 2026-04-26 20:56 | 27.56977 | -81.99613 | 1497 ft | 145 kts | 332° |
| 2026-04-26 20:56 | 27.57968 | -81.99895 | 1502 ft | 150 kts | 348° |
| 2026-04-26 20:56 | 27.59033 | -81.99979 | 1506 ft | 149 kts | 353° |
| 2026-04-26 20:56 | 27.60076 | -82.00007 | 1495 ft | 151 kts | 354° |
| 2026-04-26 20:57 | 27.61154 | -82.00029 | 1520 ft | 156 kts | 353° |
| 2026-04-26 20:57 | 27.62213 | -82.00053 | 1512 ft | 152 kts | 352° |
| 2026-04-26 20:57 | 27.63270 | -82.00083 | 1499 ft | 153 kts | 353° |
| 2026-04-26 20:57 | 27.64334 | -82.00121 | 1486 ft | 155 kts | 354° |
| 2026-04-26 20:58 | 27.65439 | -82.00150 | 1519 ft | 160 kts | 354° |
| 2026-04-26 20:58 | 27.66526 | -82.00183 | 1508 ft | 157 kts | 353° |
| 2026-04-26 20:58 | 27.67619 | -82.00221 | 1486 ft | 157 kts | 353° |
| 2026-04-26 20:58 | 27.68690 | -82.00269 | 1501 ft | 153 kts | 354° |
| 2026-04-26 20:59 | 27.69780 | -82.00335 | 1518 ft | 159 kts | 352° |
| 2026-04-26 20:59 | 27.70870 | -82.00386 | 1494 ft | 154 kts | 353° |
| 2026-04-26 20:59 | 27.71934 | -82.00428 | 1505 ft | 161 kts | 352° |
| 2026-04-26 20:59 | 27.73049 | -82.00471 | 1507 ft | 160 kts | 352° |
| 2026-04-26 21:00 | 27.74146 | -82.00526 | 1500 ft | 157 kts | 351° |
| 2026-04-26 21:00 | 27.75222 | -82.00573 | 1492 ft | 154 kts | 354° |
| 2026-04-26 21:00 | 27.76288 | -82.00629 | 1494 ft | 156 kts | 351° |
| 2026-04-26 21:00 | 27.77375 | -82.00680 | 1508 ft | 154 kts | 353° |
| 2026-04-26 21:01 | 27.78447 | -82.00725 | 1489 ft | 154 kts | 352° |
| 2026-04-26 21:01 | 27.79501 | -82.00759 | 1503 ft | 156 kts | 353° |
| 2026-04-26 21:01 | 27.80548 | -82.00786 | 1518 ft | 156 kts | 351° |
| 2026-04-26 21:01 | 27.81613 | -82.00811 | 1505 ft | 154 kts | 354° |
| 2026-04-26 21:02 | 27.82678 | -82.00857 | 1476 ft | 156 kts | 351° |
| 2026-04-26 21:02 | 27.83754 | -82.00892 | 1509 ft | 155 kts | 353° |
| 2026-04-26 21:02 | 27.84816 | -82.00923 | 1504 ft | 156 kts | 352° |
| 2026-04-26 21:02 | 27.85890 | -82.00962 | 1501 ft | 154 kts | 353° |
| 2026-04-26 21:03 | 27.86966 | -82.01006 | 1492 ft | 158 kts | 350° |
| 2026-04-26 21:03 | 27.88045 | -82.01048 | 1494 ft | 154 kts | 351° |
| 2026-04-26 21:03 | 27.89117 | -82.01078 | 1487 ft | 156 kts | 355° |
| 2026-04-26 21:03 | 27.90201 | -82.01110 | 1500 ft | 155 kts | 354° |
| 2026-04-26 21:04 | 27.91260 | -82.01157 | 1498 ft | 155 kts | 352° |
| 2026-04-26 21:04 | 27.92314 | -82.01192 | 1498 ft | 150 kts | 353° |
| 2026-04-26 21:04 | 27.93383 | -82.01237 | 1505 ft | 155 kts | 355° |
| 2026-04-26 21:04 | 27.94463 | -82.01301 | 1503 ft | 157 kts | 353° |
| 2026-04-26 21:05 | 27.95541 | -82.01373 | 1472 ft | 151 kts | 352° |
| 2026-04-26 21:05 | 27.96616 | -82.01330 | 1484 ft | 156 kts | 11° |
| 2026-04-26 21:05 | 27.97235 | -82.00870 | 1515 ft | 170 kts | 47° |
| 2026-04-26 21:05 | 27.97678 | -81.99680 | 1504 ft | 162 kts | 78° |
| 2026-04-26 21:06 | 27.97733 | -81.98350 | 1500 ft | 177 kts | 90° |
| 2026-04-26 21:06 | 27.97663 | -81.96981 | 1495 ft | 174 kts | 92° |
| 2026-04-26 21:06 | 27.97681 | -81.95664 | 1428 ft | 165 kts | 63° |
| 2026-04-26 21:06 | 27.98587 | -81.95075 | 1369 ft | 155 kts | 350° |
| 2026-04-26 21:07 | 27.99377 | -81.95729 | 1222 ft | 152 kts | 282° |
| 2026-04-26 21:07 | 27.99146 | -81.96877 | 882 ft | 147 kts | 250° |
| 2026-04-26 21:07 | 27.98868 | -81.97933 | 709 ft | 141 kts | 268° |
| 2026-04-26 21:07 | 27.98917 | -81.99017 | 457 ft | 139 kts | 271° |
| 2026-04-26 21:08 | 27.98924 | -82.00029 | 280 ft | 133 kts | 271° |
| 2026-04-26 21:08 | 27.98930 | -82.01173 | 186 ft | 146 kts | 270° |
| 2026-04-26 21:08 | 27.98925 | -82.02160 | 146 ft | 88 kts | 270° |
| 2026-04-26 21:08 | 27.98924 | -82.02774 | 146 ft | 66 kts | 270° |
| 2026-04-26 21:09 | 27.98923 | -82.03223 | 147 ft | 35 kts | 270° |
| 2026-04-26 21:09 | 27.98878 | -82.03356 | 147 ft | 11 kts | 208° |
| 2026-04-26 21:09 | 27.98826 | -82.03346 | 146 ft | 6 kts | 135° |
| 2026-04-26 21:09 | 27.98817 | -82.03286 | 146 ft | 19 kts | 89° |
| 2026-04-26 21:10 | 27.98816 | -82.03157 | 146 ft | 14 kts | 90° |
| 2026-04-26 21:10 | 27.98816 | -82.02980 | 146 ft | 20 kts | 90° |
| 2026-04-26 21:10 | 27.98816 | -82.02826 | 145 ft | 19 kts | 91° |
| 2026-04-26 21:10 | 27.98814 | -82.02674 | 145 ft | 19 kts | 91° |
| 2026-04-26 21:11 | 27.98817 | -82.02539 | 146 ft | 17 kts | 87° |
| 2026-04-26 21:11 | 27.98819 | -82.02402 | 145 ft | 17 kts | 89° |
| 2026-04-26 21:11 | 27.98815 | -82.02315 | 146 ft | 7 kts | 117° |
| 2026-04-26 21:11 | 27.98756 | -82.02295 | 146 ft | 5 kts | 165° |
| 2026-04-26 21:12 | 27.98733 | -82.02268 | 146 ft | 5 kts | 108° |
| 2026-04-26 21:12 | 27.98731 | -82.02189 | 146 ft | 12 kts | 90° |
| 2026-04-26 21:12 | 27.98731 | -82.02112 | 146 ft | 11 kts | 90° |
| 2026-04-26 21:12 | 27.98732 | -82.02012 | 146 ft | 24 kts | 90° |
| 2026-04-26 21:13 | 27.98730 | -82.01836 | 149 ft | 20 kts | 89° |
| 2026-04-26 21:13 | 27.98728 | -82.01700 | 147 ft | 15 kts | 89° |
| 2026-04-26 21:13 | 27.98732 | -82.01605 | 149 ft | 9 kts | 81° |
| 2026-04-26 21:13 | 27.98753 | -82.01556 | 148 ft | 5 kts | 47° |
| 2026-04-26 21:14 | 27.98762 | -82.01552 | 148 ft | 0 kts | 316° |
| 2026-04-26 21:14 | 27.98759 | -82.01548 | 148 ft | 0 kts | 316° |
| 2026-04-26 21:14 | 27.98760 | -82.01549 | 148 ft | 3 kts | 316° |
| 2026-04-26 21:14 | 27.98762 | -82.01551 | 148 ft | 0 kts | 316° |
| 2026-04-26 21:23 | 27.98761 | -82.01551 | 148 ft | 0 kts | 317° |
| 2026-04-26 21:25 | 27.98762 | -82.01551 | 148 ft | 0 kts | 317° |
| 2026-04-26 22:18 | 27.98762 | -82.01552 | 148 ft | 0 kts | 318° |